createdAt,value
2022-10-19T06:24:06.833Z,19.50
2022-10-19T06:26:35.941Z,19.72
2022-10-19T06:29:05.255Z,19.91
2022-10-19T06:31:36.430Z,19.99
2022-10-19T06:34:05.088Z,19.74
2022-10-19T06:36:33.561Z,19.80
2022-10-19T06:39:02.247Z,19.87
2022-10-19T06:41:31.628Z,19.78
2022-10-19T06:44:03.197Z,20.18
2022-10-19T06:46:32.600Z,20.31
2022-10-19T06:49:02.247Z,20.39
2022-10-19T06:51:32.285Z,20.51
2022-10-19T06:54:38.376Z,20.79
2022-10-19T06:57:08.141Z,20.68
2022-10-19T06:59:36.696Z,20.88
2022-10-19T07:02:05.484Z,21.28
2022-10-19T07:04:33.774Z,21.51
2022-10-19T07:07:01.855Z,20.87
2022-10-19T07:09:29.928Z,20.55
2022-10-19T07:11:58.277Z,20.84
2022-10-19T07:14:28.571Z,21.02
2022-10-19T07:16:57.377Z,21.53
2022-10-19T07:19:27.088Z,21.57
2022-10-19T07:21:55.527Z,21.93
2022-10-19T07:24:24.065Z,21.55
2022-10-19T07:26:52.145Z,21.81
2022-10-19T07:29:20.152Z,22.46
2022-10-19T07:31:48.491Z,22.68
2022-10-19T07:34:16.889Z,22.90
2022-10-19T07:36:48.145Z,23.14
2022-10-19T07:39:19.669Z,23.27
2022-10-19T07:41:48.083Z,22.75
2022-10-19T07:44:16.834Z,22.62
2022-10-19T07:46:45.408Z,22.22
2022-10-19T07:49:16.586Z,21.71
2022-10-19T07:51:47.552Z,21.40
2022-10-19T07:54:16.309Z,21.31
2022-10-19T07:56:44.356Z,21.04
2022-10-19T07:59:14.927Z,20.87
2022-10-19T08:01:44.194Z,20.81
2022-10-19T08:07:00.961Z,20.08
2022-10-19T08:12:18.317Z,20.15
2022-10-19T08:14:48.154Z,20.08
2022-10-19T08:17:17.782Z,20.06
2022-10-19T08:19:47.295Z,20.18
2022-10-19T08:22:15.622Z,20.32
2022-10-19T08:24:45.466Z,20.39
2022-10-19T08:27:15.067Z,20.35
2022-10-19T08:29:43.109Z,20.25
2022-10-19T08:32:11.263Z,20.34
2022-10-19T08:34:39.487Z,20.46
2022-10-19T08:37:19.707Z,20.54
2022-10-19T08:39:55.702Z,20.64
2022-10-19T08:42:48.349Z,20.48
2022-10-19T08:45:37.499Z,19.84
2022-10-19T08:48:29.248Z,19.55
2022-10-19T08:50:59.163Z,19.42
2022-10-19T08:53:37.767Z,19.30
2022-10-19T08:56:49.410Z,19.17
2022-10-19T08:59:30.334Z,18.96
2022-10-19T09:02:20.671Z,18.71
2022-10-19T09:04:54.827Z,18.67
2022-10-19T09:07:45.341Z,18.80
2022-10-19T09:10:13.528Z,19.02
2022-10-19T09:12:47.637Z,19.21
2022-10-19T09:15:25.157Z,19.33
2022-10-19T09:17:53.520Z,19.46
2022-10-19T09:20:38.176Z,19.56
2022-10-19T09:23:31.116Z,19.63
2022-10-19T09:25:59.689Z,19.65
2022-10-19T09:28:38.916Z,19.59
2022-10-19T09:31:36.983Z,19.28
2022-10-19T09:34:24.197Z,19.02
2022-10-19T09:36:57.685Z,18.33
2022-10-19T09:39:29.556Z,17.88
2022-10-19T09:41:59.693Z,17.55
2022-10-19T09:44:27.743Z,17.69
2022-10-19T09:47:13.719Z,17.90
2022-10-19T09:49:47.823Z,18.03
2022-10-19T09:52:23.702Z,18.15
2022-10-19T09:55:03.811Z,18.16
2022-10-19T09:57:32.262Z,18.24
2022-10-19T10:00:03.291Z,18.32
2022-10-19T10:02:33.761Z,18.48
2022-10-19T10:05:07.018Z,18.67
2022-10-19T10:07:39.127Z,18.77
2022-10-19T10:10:32.520Z,18.77
2022-10-19T10:13:01.031Z,19.00
2022-10-19T10:15:36.100Z,19.19
2022-10-19T10:18:04.215Z,19.32
2022-10-19T10:20:32.835Z,19.34
2022-10-19T10:23:04.267Z,19.24
2022-10-19T10:25:36.282Z,19.33
2022-10-19T10:28:25.666Z,19.25
2022-10-19T10:31:06.577Z,19.11
2022-10-19T10:33:44.921Z,19.07
2022-10-19T10:36:13.940Z,19.38
2022-10-19T10:38:54.637Z,19.52
2022-10-19T10:41:23.966Z,19.50
2022-10-19T10:44:06.748Z,19.82
2022-10-19T10:46:42.821Z,20.19
2022-10-19T10:49:21.849Z,20.70
2022-10-19T10:52:00.564Z,21.17
2022-10-19T10:54:31.445Z,21.47
2022-10-19T10:57:09.876Z,21.55
2022-10-19T10:59:57.836Z,21.71
2022-10-19T11:02:56.058Z,21.74
2022-10-19T11:05:26.784Z,21.77
2022-10-19T11:08:15.424Z,21.75
2022-10-19T11:10:47.100Z,21.67
2022-10-19T11:13:29.394Z,21.30
2022-10-19T11:16:02.983Z,21.16
2022-10-19T11:18:36.330Z,21.04
2022-10-19T11:21:09.994Z,20.83
2022-10-19T11:23:58.222Z,20.44
2022-10-19T11:26:39.708Z,20.31
2022-10-19T11:29:33.278Z,20.17
2022-10-19T11:32:02.006Z,20.11
2022-10-19T11:34:59.729Z,20.07
2022-10-19T11:38:22.656Z,19.99
2022-10-19T11:41:19.039Z,20.01
2022-10-19T11:44:11.881Z,19.96
2022-10-19T11:46:52.439Z,19.94
2022-10-19T11:49:35.764Z,19.94
2022-10-19T11:52:20.736Z,19.84
2022-10-19T11:55:19.069Z,19.71
2022-10-19T11:58:06.947Z,19.47
2022-10-19T12:00:49.315Z,19.36
2022-10-19T12:03:51.243Z,19.36
2022-10-19T12:06:31.231Z,19.41
2022-10-19T12:09:13.007Z,19.47
2022-10-19T12:12:01.378Z,19.52
2022-10-19T12:14:36.510Z,19.69
2022-10-19T12:17:28.454Z,19.56
2022-10-19T12:20:02.602Z,19.38
2022-10-19T12:22:31.784Z,19.33
2022-10-19T12:25:02.155Z,19.25
2022-10-19T12:27:35.446Z,19.24
2022-10-19T12:30:29.108Z,19.26
2022-10-19T12:33:20.528Z,19.33
2022-10-19T12:36:04.433Z,19.24
2022-10-19T12:38:45.951Z,19.20
2022-10-19T12:41:34.886Z,19.11
2022-10-19T12:44:12.255Z,18.90
2022-10-19T12:46:48.395Z,18.71
2022-10-19T12:49:29.102Z,18.64
2022-10-19T12:51:59.261Z,18.54
2022-10-19T12:54:30.684Z,18.47
2022-10-19T12:57:00.962Z,18.38
2022-10-19T12:59:31.896Z,18.24
2022-10-19T13:02:04.706Z,18.21
2022-10-19T13:04:35.998Z,18.16
2022-10-19T13:07:08.364Z,18.11
2022-10-19T13:09:45.986Z,18.03
2022-10-19T13:12:17.653Z,17.92
2022-10-19T13:15:02.720Z,17.88
2022-10-19T13:17:37.365Z,17.97
2022-10-19T13:20:14.978Z,18.04
2022-10-19T13:23:05.954Z,18.02
2022-10-19T13:25:35.187Z,17.90
2022-10-19T13:28:06.114Z,17.85
2022-10-19T13:31:04.916Z,17.90
2022-10-19T13:33:46.632Z,17.94
2022-10-19T13:36:16.101Z,17.85
2022-10-19T13:38:44.271Z,17.74
2022-10-19T13:41:27.472Z,17.67
2022-10-19T13:44:14.536Z,17.75
2022-10-19T13:47:01.090Z,17.55
2022-10-19T13:49:48.132Z,17.34
2022-10-19T13:52:51.630Z,17.40
2022-10-19T13:55:28.824Z,17.43
2022-10-19T13:58:27.965Z,17.33
2022-10-19T14:00:55.772Z,17.24
2022-10-19T14:03:29.929Z,17.16
2022-10-19T14:06:02.889Z,17.12
2022-10-19T14:08:54.885Z,17.08
2022-10-19T14:11:36.749Z,17.04
2022-10-19T14:14:10.739Z,17.06
2022-10-19T14:16:47.450Z,17.06
2022-10-19T14:19:27.276Z,17.02
2022-10-19T14:22:01.653Z,16.92
2022-10-19T14:24:35.260Z,16.92
2022-10-19T14:27:06.295Z,16.86
2022-10-19T14:29:46.209Z,16.74
2022-10-19T14:32:14.565Z,16.66
2022-10-19T14:34:44.479Z,16.56
2022-10-19T14:37:26.815Z,16.41
2022-10-19T14:40:28.092Z,16.42
2022-10-19T14:42:58.774Z,16.34
2022-10-19T14:45:32.612Z,16.25
2022-10-19T14:48:07.056Z,16.18
2022-10-19T14:50:35.138Z,16.08
2022-10-19T14:53:25.313Z,15.95
2022-10-19T14:55:56.835Z,15.82
2022-10-19T14:58:29.833Z,15.72
2022-10-19T15:00:58.535Z,15.59
2022-10-19T15:03:28.957Z,15.45
2022-10-19T15:06:02.687Z,15.33
2022-10-19T15:08:47.940Z,15.22
2022-10-19T15:11:22.207Z,15.13
2022-10-19T15:14:16.251Z,15.02
2022-10-19T15:16:51.101Z,14.90
2022-10-19T15:19:31.170Z,14.79
2022-10-19T15:22:14.536Z,14.69
2022-10-19T15:25:23.506Z,14.63
2022-10-19T15:27:53.895Z,14.56
2022-10-19T15:30:26.498Z,14.58
2022-10-19T15:33:01.216Z,14.57
2022-10-19T15:35:37.561Z,14.51
2022-10-19T15:38:21.569Z,14.44
2022-10-19T15:40:57.193Z,14.32
2022-10-19T15:43:32.674Z,14.24
2022-10-19T15:46:12.648Z,14.15
2022-10-19T15:48:40.718Z,14.08
2022-10-19T15:51:23.970Z,14.05
2022-10-19T15:53:53.995Z,14.02
2022-10-19T15:56:24.637Z,13.98
2022-10-19T15:58:54.887Z,13.97
2022-10-19T16:01:33.655Z,13.92
2022-10-19T16:04:02.395Z,13.94
2022-10-19T16:06:33.477Z,13.97
2022-10-19T16:09:02.492Z,13.97
2022-10-19T16:11:34.009Z,14.00
2022-10-19T16:14:02.389Z,13.95
2022-10-19T16:16:32.673Z,13.86
2022-10-19T16:19:01.187Z,13.83
2022-10-19T16:21:34.160Z,13.74
2022-10-19T16:24:02.692Z,13.71
2022-10-19T16:26:32.280Z,13.71
2022-10-19T16:29:01.770Z,13.65
2022-10-19T16:31:31.484Z,13.64
2022-10-19T16:33:59.611Z,13.62
2022-10-19T16:36:27.769Z,13.64
2022-10-19T16:38:56.000Z,13.65
2022-10-19T16:41:24.146Z,13.62
2022-10-19T16:43:56.555Z,13.61
2022-10-19T16:46:26.101Z,13.59
2022-10-19T16:48:55.390Z,13.65
2022-10-19T16:51:32.357Z,13.71
2022-10-19T16:54:00.611Z,13.78
2022-10-19T16:56:30.836Z,13.81
2022-10-19T16:59:05.018Z,13.79
2022-10-19T17:01:34.767Z,13.77
2022-10-19T17:04:02.759Z,13.75
2022-10-19T17:06:33.161Z,13.71
2022-10-19T17:11:49.247Z,13.59
2022-10-19T17:14:17.204Z,13.55
2022-10-19T17:16:45.286Z,13.50
2022-10-19T17:19:13.562Z,13.46
2022-10-19T17:21:42.550Z,13.34
2022-10-19T17:24:21.606Z,13.25
2022-10-19T17:26:52.997Z,13.21
2022-10-19T17:29:22.835Z,13.23
2022-10-19T17:31:51.152Z,13.21
2022-10-19T17:34:19.804Z,13.28
2022-10-19T17:36:48.421Z,13.34
2022-10-19T17:39:19.428Z,13.33
2022-10-19T17:41:49.444Z,13.36
2022-10-19T17:44:18.813Z,13.44
2022-10-19T17:46:47.333Z,13.48
2022-10-19T17:49:16.445Z,13.49
2022-10-19T17:51:44.600Z,13.56
2022-10-19T17:54:14.482Z,13.62
2022-10-19T17:56:45.467Z,13.68
2022-10-19T17:59:14.082Z,13.76
2022-10-19T18:01:42.592Z,13.77
2022-10-19T18:04:11.195Z,13.79
2022-10-19T18:06:39.780Z,13.83
2022-10-19T18:09:10.183Z,13.84
2022-10-19T18:11:42.153Z,13.82
2022-10-19T18:14:13.257Z,13.76
2022-10-19T18:16:47.522Z,13.68
2022-10-19T18:19:17.028Z,13.63
2022-10-19T18:21:47.963Z,13.58
2022-10-19T18:24:20.114Z,13.62
2022-10-19T18:26:51.153Z,13.62
2022-10-19T18:29:21.948Z,13.57
2022-10-19T18:31:55.081Z,13.47
2022-10-19T18:34:26.748Z,13.40
2022-10-19T18:36:55.350Z,13.28
2022-10-19T18:39:23.814Z,13.21
2022-10-19T18:41:56.250Z,13.16
2022-10-19T18:44:26.526Z,13.07
2022-10-19T18:46:57.129Z,12.97
2022-10-19T18:49:25.948Z,12.81
2022-10-19T18:51:55.658Z,12.73
2022-10-19T18:54:26.581Z,12.67
2022-10-19T18:56:55.576Z,12.62
2022-10-19T18:59:24.005Z,12.56
2022-10-19T19:01:52.507Z,12.50
2022-10-19T19:04:21.003Z,12.49
2022-10-19T19:06:49.382Z,12.50
2022-10-19T19:09:19.189Z,12.52
2022-10-19T19:11:47.370Z,12.53
2022-10-19T19:14:17.895Z,12.53
2022-10-19T19:16:46.583Z,12.51
2022-10-19T19:19:16.704Z,12.55
2022-10-19T19:21:46.108Z,12.57
2022-10-19T19:24:15.675Z,12.57
2022-10-19T19:26:48.393Z,12.56
2022-10-19T19:29:18.034Z,12.55
2022-10-19T19:31:47.424Z,12.55
2022-10-19T19:34:15.778Z,12.53
2022-10-19T19:36:48.635Z,12.51
2022-10-19T19:39:20.852Z,12.59
2022-10-19T19:41:50.162Z,12.68
2022-10-19T19:44:18.927Z,12.73
2022-10-19T19:46:47.231Z,12.77
2022-10-19T19:49:15.359Z,12.87
2022-10-19T19:51:43.297Z,12.93
2022-10-19T19:54:12.418Z,12.92
2022-10-19T19:56:42.542Z,12.91
2022-10-19T19:59:12.834Z,12.86
2022-10-19T20:01:41.429Z,12.73
2022-10-19T20:04:10.726Z,12.68
2022-10-19T20:06:40.836Z,12.59
2022-10-19T20:09:10.873Z,12.47
2022-10-19T20:11:42.343Z,12.42
2022-10-19T20:14:12.220Z,12.33
2022-10-19T20:16:41.032Z,12.28
2022-10-19T20:19:11.872Z,12.20
2022-10-19T20:21:41.259Z,12.13
2022-10-19T20:24:10.364Z,12.09
2022-10-19T20:26:38.741Z,12.08
2022-10-19T20:29:06.935Z,12.10
2022-10-19T20:31:39.732Z,12.06
2022-10-19T20:34:14.189Z,12.07
2022-10-19T20:36:43.144Z,12.06
2022-10-19T20:39:11.289Z,12.07
2022-10-19T20:41:39.560Z,12.10
2022-10-19T20:44:08.035Z,12.14
2022-10-19T20:46:37.438Z,12.21
2022-10-19T20:49:05.579Z,12.30
2022-10-19T20:51:36.975Z,12.42
2022-10-19T20:54:10.153Z,12.51
2022-10-19T20:56:40.368Z,12.57
2022-10-19T20:59:13.077Z,12.58
2022-10-19T21:01:43.762Z,12.61
2022-10-19T21:04:14.602Z,12.61
2022-10-19T21:06:48.709Z,12.61
2022-10-19T21:09:19.435Z,12.64
2022-10-19T21:11:50.310Z,12.64
2022-10-19T21:14:28.583Z,12.59
2022-10-19T21:16:58.430Z,12.55
2022-10-19T21:19:29.340Z,12.49
2022-10-19T21:22:02.153Z,12.49
2022-10-19T21:24:33.037Z,12.38
2022-10-19T21:27:05.441Z,12.30
2022-10-19T21:29:33.830Z,12.26
2022-10-19T21:32:02.231Z,12.17
2022-10-19T21:34:31.605Z,12.12
2022-10-19T21:36:59.734Z,11.94
2022-10-19T21:39:28.251Z,11.82
2022-10-19T21:41:56.749Z,11.76
2022-10-19T21:44:24.707Z,11.64
2022-10-19T21:46:52.878Z,11.58
2022-10-19T21:49:21.039Z,11.57
2022-10-19T21:51:52.214Z,11.49
2022-10-19T21:54:25.071Z,11.36
2022-10-19T21:56:55.229Z,11.28
2022-10-19T21:59:23.283Z,11.27
2022-10-19T22:01:51.504Z,11.19
2022-10-19T22:04:19.741Z,11.09
2022-10-19T22:06:48.507Z,10.93
2022-10-19T22:09:20.976Z,10.85
2022-10-19T22:11:49.568Z,10.83
2022-10-19T22:14:18.351Z,10.76
2022-10-19T22:16:46.728Z,10.72
2022-10-19T22:19:15.022Z,10.64
2022-10-19T22:21:43.069Z,10.55
2022-10-19T22:24:14.089Z,10.45
2022-10-19T22:26:45.601Z,10.37
2022-10-19T22:29:14.134Z,10.32
2022-10-19T22:31:43.229Z,10.26
2022-10-19T22:34:15.005Z,10.19
2022-10-19T22:36:44.195Z,10.13
2022-10-19T22:39:12.699Z,10.08
2022-10-19T22:41:40.943Z,10.08
2022-10-19T22:44:09.459Z,10.12
2022-10-19T22:46:37.514Z,10.18
2022-10-19T22:49:05.626Z,10.14
2022-10-19T22:51:33.888Z,10.14
2022-10-19T22:54:02.078Z,10.23
2022-10-19T22:56:30.274Z,10.34
2022-10-19T22:58:59.904Z,10.36
2022-10-19T23:01:28.695Z,10.41
2022-10-19T23:03:57.265Z,10.43
2022-10-19T23:06:26.159Z,10.42
2022-10-19T23:08:54.651Z,10.44
2022-10-19T23:11:23.013Z,10.42
2022-10-19T23:13:51.093Z,10.40
2022-10-19T23:16:19.040Z,10.42
2022-10-19T23:18:47.430Z,10.37
2022-10-19T23:21:15.705Z,10.35
2022-10-19T23:23:43.851Z,10.29
2022-10-19T23:26:18.018Z,10.25
2022-10-19T23:28:48.823Z,10.15
2022-10-19T23:31:20.155Z,10.05
2022-10-19T23:33:48.041Z,9.86
2022-10-19T23:36:21.740Z,9.66
2022-10-19T23:38:51.546Z,9.57
2022-10-19T23:41:21.195Z,9.39
2022-10-19T23:43:49.626Z,9.27
2022-10-19T23:46:17.707Z,9.17
2022-10-19T23:48:46.061Z,9.05
2022-10-19T23:51:16.762Z,8.98
2022-10-19T23:53:46.735Z,8.88
2022-10-19T23:56:19.459Z,8.81
2022-10-19T23:58:48.917Z,8.78
